createdAt,value
2022-09-09T00:01:53.910Z,12.00
2022-09-09T00:04:32.691Z,16.67
2022-09-09T00:07:23.031Z,17.85
2022-09-09T00:09:58.879Z,22.40
2022-09-09T00:12:42.440Z,18.70
2022-09-09T00:15:16.699Z,22.90
2022-09-09T00:18:01.191Z,23.50
2022-09-09T00:20:47.078Z,23.83
2022-09-09T00:23:25.369Z,26.95
2022-09-09T00:25:58.278Z,15.20
2022-09-09T00:28:28.675Z,18.63
2022-09-09T00:30:58.354Z,16.88
2022-09-09T00:33:27.767Z,21.23
2022-09-09T00:35:58.973Z,18.95
2022-09-09T00:39:06.352Z,24.38
2022-09-09T00:41:36.097Z,22.38
2022-09-09T00:44:31.656Z,23.77
2022-09-09T00:47:36.462Z,18.23
2022-09-09T00:50:25.874Z,18.70
2022-09-09T00:53:06.009Z,18.67
2022-09-09T00:56:08.184Z,18.63
2022-09-09T00:58:35.566Z,19.30
2022-09-09T01:01:14.263Z,19.88
2022-09-09T01:03:59.874Z,20.70
2022-09-09T01:06:37.980Z,20.67
2022-09-09T01:09:43.475Z,23.00
2022-09-09T01:12:18.522Z,20.25
2022-09-09T01:14:55.295Z,20.45
2022-09-09T01:17:33.661Z,21.45
2022-09-09T01:20:20.167Z,21.02
2022-09-09T01:23:37.623Z,25.10
2022-09-09T01:26:39.559Z,27.67
2022-09-09T01:29:15.261Z,22.92
2022-09-09T01:31:58.018Z,27.83
2022-09-09T01:34:35.214Z,31.08
2022-09-09T01:37:13.411Z,26.27
2022-09-09T01:39:44.712Z,30.50
2022-09-09T01:42:17.506Z,26.02
2022-09-09T01:44:45.545Z,31.10
2022-09-09T01:47:13.322Z,31.42
2022-09-09T01:49:59.609Z,28.30
2022-09-09T01:52:32.203Z,27.85
2022-09-09T01:54:59.403Z,29.33
2022-09-09T01:57:39.314Z,31.80
2022-09-09T02:00:15.443Z,31.33
2022-09-09T02:03:20.011Z,29.33
2022-09-09T02:06:27.934Z,25.90
2022-09-09T02:09:06.434Z,28.85
2022-09-09T02:11:35.376Z,27.75
2022-09-09T02:14:38.688Z,25.50
2022-09-09T02:17:17.976Z,28.48
2022-09-09T02:20:16.716Z,30.63
2022-09-09T02:22:53.322Z,32.28
2022-09-09T02:25:25.737Z,28.90
2022-09-09T02:27:55.597Z,32.58
2022-09-09T02:30:23.167Z,27.15
2022-09-09T02:32:59.629Z,30.17
2022-09-09T02:35:48.069Z,25.20
2022-09-09T02:38:21.618Z,27.83
2022-09-09T02:40:59.202Z,32.28
2022-09-09T02:43:26.393Z,28.75
2022-09-09T02:46:03.003Z,32.00
2022-09-09T02:48:44.829Z,31.83
2022-09-09T02:51:28.111Z,30.63
2022-09-09T02:54:25.258Z,39.38
2022-09-09T02:56:57.340Z,33.42
2022-09-09T02:59:33.647Z,34.25
2022-09-09T03:02:02.488Z,34.90
2022-09-09T03:04:32.134Z,32.55
2022-09-09T03:07:00.282Z,31.55
2022-09-09T03:09:27.360Z,30.70
2022-09-09T03:11:56.125Z,26.88
2022-09-09T03:14:26.166Z,27.50
2022-09-09T03:16:55.099Z,27.90
2022-09-09T03:19:22.373Z,28.73
2022-09-09T03:21:50.603Z,26.33
2022-09-09T03:24:18.255Z,24.83
2022-09-09T03:26:45.791Z,31.23
2022-09-09T03:29:16.519Z,30.35
2022-09-09T03:31:44.490Z,34.17
2022-09-09T03:34:12.242Z,31.77
2022-09-09T03:36:39.098Z,34.90
2022-09-09T03:39:06.189Z,35.53
2022-09-09T03:41:33.231Z,37.13
2022-09-09T03:44:02.619Z,36.00
2022-09-09T03:46:34.844Z,32.97
2022-09-09T03:49:02.555Z,29.90
2022-09-09T03:51:31.690Z,35.80
2022-09-09T03:53:59.217Z,38.78
2022-09-09T03:56:27.947Z,35.33
2022-09-09T03:58:55.096Z,34.95
2022-09-09T04:01:22.426Z,36.15
2022-09-09T04:03:51.425Z,39.22
2022-09-09T04:06:18.944Z,36.05
2022-09-09T04:08:49.786Z,36.50
2022-09-09T04:11:17.819Z,34.13
2022-09-09T04:13:46.885Z,34.85
2022-09-09T04:16:14.741Z,33.40
2022-09-09T04:18:44.542Z,34.45
2022-09-09T04:21:13.326Z,39.45
2022-09-09T04:23:41.253Z,35.17
2022-09-09T04:26:08.704Z,38.90
2022-09-09T04:28:38.188Z,34.95
2022-09-09T04:31:19.120Z,33.85
2022-09-09T04:33:47.797Z,34.70
2022-09-09T04:36:15.515Z,34.17
2022-09-09T04:38:45.455Z,37.10
2022-09-09T04:41:14.077Z,40.05
2022-09-09T04:43:44.092Z,39.85
2022-09-09T04:46:11.957Z,37.85
2022-09-09T04:48:39.295Z,35.55
2022-09-09T04:51:15.044Z,38.63
2022-09-09T04:53:44.038Z,35.55
2022-09-09T04:56:17.322Z,36.95
2022-09-09T04:59:03.952Z,37.45
2022-09-09T05:01:43.667Z,35.83
2022-09-09T05:04:12.210Z,36.38
2022-09-09T05:06:39.582Z,38.58
2022-09-09T05:09:06.788Z,30.98
2022-09-09T05:11:37.728Z,34.00
2022-09-09T05:14:39.076Z,33.28
2022-09-09T05:17:07.980Z,30.58
2022-09-09T05:19:37.900Z,33.13
2022-09-09T05:22:06.071Z,32.92
2022-09-09T05:24:41.265Z,30.05
2022-09-09T05:27:08.681Z,29.95
2022-09-09T05:29:35.715Z,27.88
2022-09-09T05:32:05.715Z,29.48
2022-09-09T05:34:33.246Z,26.25
2022-09-09T05:37:01.218Z,30.63
2022-09-09T05:39:28.592Z,26.85
2022-09-09T05:41:56.533Z,30.75
2022-09-09T05:44:26.017Z,28.35
2022-09-09T05:46:55.632Z,32.50
2022-09-09T05:49:23.403Z,31.95
2022-09-09T05:51:51.680Z,29.85
2022-09-09T05:54:20.409Z,28.58
2022-09-09T05:56:52.317Z,29.98
2022-09-09T05:59:20.632Z,29.55
2022-09-09T06:01:49.143Z,32.47
2022-09-09T06:04:25.909Z,29.75
2022-09-09T06:06:53.816Z,34.20
2022-09-09T06:09:22.907Z,32.05
2022-09-09T06:11:50.524Z,29.80
2022-09-09T06:14:19.113Z,29.98
2022-09-09T06:16:48.334Z,29.17
2022-09-09T06:21:50.077Z,33.72
2022-09-09T06:24:18.433Z,27.10
2022-09-09T06:26:46.486Z,31.60
2022-09-09T06:29:19.244Z,30.30
2022-09-09T06:31:46.708Z,30.20
2022-09-09T06:34:16.709Z,29.45
2022-09-09T06:36:47.964Z,30.45
2022-09-09T06:39:16.483Z,29.88
2022-09-09T06:41:50.095Z,32.30
2022-09-09T06:44:39.748Z,30.92
2022-09-09T06:47:10.232Z,29.23
2022-09-09T06:49:37.307Z,34.70
2022-09-09T06:52:10.397Z,33.97
2022-09-09T06:54:38.534Z,35.92
2022-09-09T06:57:33.713Z,30.27
2022-09-09T06:59:56.744Z,28.85
2022-09-09T07:02:24.065Z,32.33
2022-09-09T07:04:52.651Z,36.38
2022-09-09T07:07:19.981Z,33.40
2022-09-09T07:09:47.511Z,35.00
2022-09-09T07:12:15.510Z,32.28
2022-09-09T07:14:50.349Z,35.38
2022-09-09T07:17:17.415Z,42.42
2022-09-09T07:19:44.405Z,31.63
2022-09-09T07:22:11.727Z,38.20
2022-09-09T07:24:39.526Z,34.70
2022-09-09T07:27:07.359Z,35.05
2022-09-09T07:29:36.241Z,33.70
2022-09-09T07:32:05.274Z,35.70
2022-09-09T07:34:36.890Z,36.40
2022-09-09T07:37:05.044Z,32.00
2022-09-09T07:39:33.164Z,36.20
2022-09-09T07:42:00.383Z,29.92
2022-09-09T07:44:28.358Z,30.48
2022-09-09T07:47:09.014Z,32.05
2022-09-09T07:49:41.872Z,31.33
2022-09-09T07:52:09.555Z,31.45
2022-09-09T07:54:39.673Z,32.17
2022-09-09T07:57:07.839Z,33.33
2022-09-09T07:59:36.666Z,34.95
2022-09-09T08:02:05.121Z,29.58
2022-09-09T08:04:34.647Z,30.80
2022-09-09T08:07:04.644Z,28.17
2022-09-09T08:09:37.819Z,30.05
2022-09-09T08:12:20.889Z,32.28
2022-09-09T08:14:48.202Z,25.02
2022-09-09T08:17:15.787Z,29.02
2022-09-09T08:19:43.837Z,23.02
2022-09-09T08:22:15.589Z,16.50
2022-09-09T08:24:42.627Z,8.65
2022-09-09T08:27:11.002Z,7.28
2022-09-09T08:29:38.956Z,3.33
2022-09-09T08:32:07.162Z,3.40
2022-09-09T08:34:35.611Z,4.32
2022-09-09T08:37:08.072Z,1.58
2022-09-09T08:39:39.261Z,1.70
2022-09-09T08:42:50.695Z,1.42
2022-09-09T08:45:48.687Z,1.75
2022-09-09T08:48:53.115Z,2.78
2022-09-09T08:51:20.490Z,5.10
2022-09-09T08:53:56.416Z,1.95
2022-09-09T08:56:29.503Z,0.70
2022-09-09T08:59:02.126Z,7.47
2022-09-09T09:01:42.149Z,1.10
2022-09-09T09:13:43.508Z,4.03
2022-09-09T09:16:26.158Z,3.83
2022-09-09T09:18:56.159Z,1.40
2022-09-09T09:21:42.722Z,1.50
2022-09-09T09:24:50.947Z,2.67
2022-09-09T09:27:39.307Z,1.33
2022-09-09T09:30:28.727Z,1.02
2022-09-09T09:33:10.129Z,0.63
2022-09-09T09:35:41.590Z,2.53
2022-09-09T09:41:08.093Z,1.88
2022-09-09T09:43:41.523Z,0.47
2022-09-09T09:46:25.155Z,2.13
2022-09-09T09:49:06.580Z,1.50
2022-09-09T09:51:36.556Z,1.95
2022-09-09T09:54:26.120Z,0.20
2022-09-09T09:56:57.139Z,0.20
2022-09-09T09:59:42.111Z,1.05
2022-09-09T10:02:27.489Z,1.70
2022-09-09T10:05:14.818Z,0.45
2022-09-09T10:07:48.998Z,1.03
2022-09-09T10:10:31.421Z,0.30
2022-09-09T10:13:14.926Z,2.75
2022-09-09T10:16:04.594Z,4.10
2022-09-09T10:18:54.119Z,1.30
2022-09-09T10:21:40.652Z,3.67
2022-09-09T10:24:55.199Z,2.60
2022-09-09T10:28:03.927Z,2.75
2022-09-09T10:31:01.371Z,1.83
2022-09-09T10:33:53.008Z,1.00
2022-09-09T10:36:27.355Z,2.65
2022-09-09T10:39:04.356Z,2.05
2022-09-09T10:42:03.265Z,1.67
2022-09-09T10:44:54.073Z,2.05
2022-09-09T10:48:05.120Z,5.00
2022-09-09T10:54:14.480Z,14.73
2022-09-09T10:56:45.370Z,6.47
2022-09-09T10:59:23.616Z,8.38
2022-09-09T11:02:00.339Z,6.00
2022-09-09T11:04:55.253Z,5.28
2022-09-09T11:07:41.952Z,3.53
2022-09-09T11:10:26.444Z,3.55
2022-09-09T11:13:02.248Z,5.13
2022-09-09T11:15:52.173Z,6.50
2022-09-09T11:18:25.436Z,4.90
2022-09-09T11:21:02.825Z,4.68
2022-09-09T11:23:50.389Z,5.53
2022-09-09T11:26:33.453Z,6.25
2022-09-09T11:29:12.654Z,14.27
2022-09-09T11:31:58.244Z,4.55
2022-09-09T11:37:33.881Z,5.45
2022-09-09T11:40:29.272Z,2.65
2022-09-09T11:43:29.620Z,3.83
2022-09-09T11:46:03.911Z,5.20
2022-09-09T11:48:46.450Z,5.88
2022-09-09T11:51:34.974Z,5.30
2022-09-09T11:54:40.374Z,3.42
2022-09-09T11:57:40.987Z,3.17
2022-09-09T12:00:38.673Z,4.25
2022-09-09T12:03:07.221Z,2.38
2022-09-09T12:05:46.980Z,3.15
2022-09-09T12:08:28.489Z,4.25
2022-09-09T12:11:00.240Z,3.03
2022-09-09T12:13:28.499Z,2.70
2022-09-09T12:16:06.226Z,1.25
2022-09-09T12:18:35.810Z,4.70
2022-09-09T12:21:34.535Z,2.20
2022-09-09T12:24:11.887Z,2.72
2022-09-09T12:27:00.781Z,2.28
2022-09-09T12:30:04.429Z,0.95
2022-09-09T12:32:31.682Z,2.63
2022-09-09T12:35:21.708Z,3.35
2022-09-09T12:38:02.789Z,3.90
2022-09-09T12:40:36.501Z,4.28
2022-09-09T12:43:23.628Z,3.58
2022-09-09T12:46:06.246Z,3.92
2022-09-09T12:48:43.075Z,3.35
2022-09-09T12:51:32.074Z,0.90
2022-09-09T12:54:00.853Z,3.58
2022-09-09T12:56:34.510Z,4.07
2022-09-09T12:59:02.278Z,2.88
2022-09-09T13:01:34.565Z,6.50
2022-09-09T13:04:01.915Z,3.55
2022-09-09T13:06:31.594Z,3.28
2022-09-09T13:09:02.476Z,2.00
2022-09-09T13:11:44.319Z,5.07
2022-09-09T13:14:21.249Z,4.07
2022-09-09T13:17:01.095Z,2.70
2022-09-09T13:19:39.527Z,7.55
2022-09-09T13:22:23.359Z,5.22
2022-09-09T13:25:04.982Z,1.50
2022-09-09T13:27:40.506Z,3.25
2022-09-09T13:30:26.605Z,2.58
2022-09-09T13:33:13.094Z,2.38
2022-09-09T13:36:05.401Z,3.45
2022-09-09T13:38:37.649Z,3.05
2022-09-09T13:41:08.474Z,2.92
2022-09-09T13:43:45.068Z,5.28
2022-09-09T13:46:43.570Z,8.35
2022-09-09T13:49:10.601Z,6.65
2022-09-09T13:51:41.131Z,2.17
2022-09-09T13:54:11.423Z,1.63
2022-09-09T13:56:40.527Z,3.90
2022-09-09T13:59:20.734Z,4.82
2022-09-09T14:01:48.372Z,4.68
2022-09-09T14:04:16.754Z,3.22
2022-09-09T14:06:44.543Z,3.92
2022-09-09T14:09:16.620Z,3.25
2022-09-09T14:11:46.447Z,3.67
2022-09-09T14:14:14.224Z,2.05
2022-09-09T14:16:42.540Z,4.18
2022-09-09T14:19:10.638Z,2.17
2022-09-09T14:21:37.778Z,4.78
2022-09-09T14:24:05.049Z,1.63
2022-09-09T14:26:32.093Z,3.33
2022-09-09T14:28:59.503Z,6.75
2022-09-09T14:31:26.832Z,2.25
2022-09-09T14:33:53.841Z,7.43
2022-09-09T14:36:21.158Z,3.67
2022-09-09T14:38:48.384Z,2.60
2022-09-09T14:41:20.727Z,2.95
2022-09-09T14:43:47.878Z,1.90
2022-09-09T14:46:18.155Z,2.55
2022-09-09T14:48:46.341Z,1.75
2022-09-09T14:51:23.639Z,5.32
2022-09-09T14:53:56.512Z,1.15
2022-09-09T14:56:28.233Z,5.25
2022-09-09T14:58:57.202Z,1.35
2022-09-09T15:01:28.264Z,4.22
2022-09-09T15:04:00.091Z,3.60
2022-09-09T15:06:30.987Z,4.57
2022-09-09T15:09:01.306Z,3.58
2022-09-09T15:11:38.743Z,5.32
2022-09-09T15:14:10.161Z,1.05
2022-09-09T15:16:37.703Z,3.20
2022-09-09T15:19:04.835Z,5.45
2022-09-09T15:21:35.413Z,2.45
2022-09-09T15:24:03.144Z,0.95
2022-09-09T15:26:31.142Z,6.20
2022-09-09T15:29:00.357Z,2.25
2022-09-09T15:31:31.388Z,2.90
2022-09-09T15:34:03.308Z,4.45
2022-09-09T15:36:36.915Z,2.35
2022-09-09T15:41:32.947Z,3.55
2022-09-09T15:44:02.119Z,3.53
2022-09-09T15:46:45.014Z,3.08
2022-09-09T15:49:26.843Z,1.10
2022-09-09T15:52:00.465Z,1.42
2022-09-09T15:56:58.135Z,2.63
2022-09-09T15:59:28.780Z,4.70
2022-09-09T16:01:56.171Z,4.43
2022-09-09T16:04:25.452Z,5.93
2022-09-09T16:06:54.473Z,5.35
2022-09-09T16:09:22.507Z,3.13
2022-09-09T16:11:49.607Z,2.70
2022-09-09T16:14:16.946Z,1.90
2022-09-09T16:16:44.373Z,2.10
2022-09-09T16:19:15.760Z,2.92
2022-09-09T16:21:46.667Z,3.05
2022-09-09T16:24:18.811Z,2.90
2022-09-09T16:26:50.684Z,3.95
2022-09-09T16:29:19.559Z,2.10
2022-09-09T16:31:48.114Z,2.25
2022-09-09T16:34:18.647Z,2.30
2022-09-09T16:36:46.800Z,1.80
2022-09-09T16:39:17.353Z,3.17
2022-09-09T16:41:46.173Z,5.45
2022-09-09T16:44:16.662Z,2.15
2022-09-09T16:46:45.223Z,3.10
2022-09-09T16:49:15.839Z,5.38
2022-09-09T16:51:54.098Z,1.58
2022-09-09T16:54:21.233Z,3.25
2022-09-09T16:56:49.345Z,2.20
2022-09-09T16:59:20.026Z,3.17
2022-09-09T17:01:50.055Z,2.95
2022-09-09T17:04:24.965Z,1.33
2022-09-09T17:06:54.835Z,6.03
2022-09-09T17:09:23.718Z,6.45
2022-09-09T17:11:53.148Z,2.38
2022-09-09T17:14:22.291Z,4.20
2022-09-09T17:16:50.007Z,2.15
2022-09-09T17:19:17.910Z,2.35
2022-09-09T17:22:15.562Z,4.10
2022-09-09T17:24:35.963Z,1.98
2022-09-09T17:27:03.273Z,5.03
2022-09-09T17:29:30.334Z,1.35
2022-09-09T17:31:57.490Z,4.00
2022-09-09T17:34:26.204Z,2.65
2022-09-09T17:36:53.413Z,5.20
2022-09-09T17:39:20.641Z,2.65
2022-09-09T17:41:47.635Z,3.40
2022-09-09T17:44:14.716Z,3.88
2022-09-09T17:46:43.890Z,3.35
2022-09-09T17:49:14.567Z,5.00
2022-09-09T17:51:43.679Z,1.52
2022-09-09T17:54:17.873Z,4.18
2022-09-09T17:56:46.841Z,4.93
2022-09-09T17:59:16.226Z,5.25
2022-09-09T18:01:46.909Z,2.90
2022-09-09T18:04:16.613Z,5.22
2022-09-09T18:06:50.348Z,7.85
2022-09-09T18:09:23.756Z,10.18
2022-09-09T18:11:56.418Z,6.38
2022-09-09T18:14:31.140Z,6.88
2022-09-09T18:17:00.858Z,5.10
2022-09-09T18:19:30.851Z,5.45
2022-09-09T18:22:00.377Z,5.35
2022-09-09T18:24:30.790Z,7.18
2022-09-09T18:26:57.649Z,10.18
2022-09-09T18:29:25.497Z,10.40
2022-09-09T18:31:54.930Z,6.65
2022-09-09T18:34:25.643Z,2.90
2022-09-09T18:36:55.199Z,2.85
2022-09-09T18:39:27.119Z,3.00
2022-09-09T18:41:59.456Z,4.50
2022-09-09T18:44:34.397Z,5.80
2022-09-09T18:47:03.777Z,4.97
2022-09-09T18:49:31.350Z,2.65
2022-09-09T18:51:59.247Z,3.83
2022-09-09T18:54:34.122Z,5.00
2022-09-09T18:57:02.402Z,1.73
2022-09-09T18:59:30.985Z,4.65
2022-09-09T19:01:58.384Z,4.82
2022-09-09T19:04:27.380Z,4.57
2022-09-09T19:06:58.041Z,3.28
2022-09-09T19:09:29.336Z,2.28
2022-09-09T19:11:56.601Z,4.38
2022-09-09T19:14:24.230Z,4.38
2022-09-09T19:16:52.109Z,4.68
2022-09-09T19:19:24.438Z,6.47
2022-09-09T19:21:57.575Z,4.45
2022-09-09T19:24:28.895Z,4.90
2022-09-09T19:27:03.028Z,5.38
2022-09-09T19:29:34.317Z,3.80
2022-09-09T19:32:49.338Z,6.30
2022-09-09T19:34:51.706Z,5.80
2022-09-09T19:37:19.504Z,4.50
2022-09-09T19:39:47.922Z,6.95
2022-09-09T19:42:15.363Z,5.95
2022-09-09T19:44:42.349Z,6.25
2022-09-09T19:47:10.040Z,9.57
2022-09-09T19:49:37.332Z,8.57
2022-09-09T19:52:05.677Z,6.45
2022-09-09T19:54:33.166Z,7.07
2022-09-09T19:57:01.348Z,4.60
2022-09-09T19:59:29.363Z,6.57
2022-09-09T20:01:56.998Z,4.10
2022-09-09T20:04:24.646Z,3.90
2022-09-09T20:06:53.158Z,7.75
2022-09-09T20:09:21.626Z,5.72
2022-09-09T20:11:50.020Z,7.22
2022-09-09T20:14:17.906Z,4.07
2022-09-09T20:16:46.534Z,5.93
2022-09-09T20:19:18.805Z,2.22
2022-09-09T20:21:52.598Z,3.15
2022-09-09T20:24:23.174Z,5.97
2022-09-09T20:26:50.856Z,5.35
2022-09-09T20:29:20.138Z,4.55
2022-09-09T20:31:48.333Z,7.55
2022-09-09T20:34:19.619Z,6.85
2022-09-09T20:36:47.530Z,11.23
2022-09-09T20:39:19.714Z,7.82
2022-09-09T20:41:47.732Z,10.55
2022-09-09T20:44:24.537Z,7.18
2022-09-09T20:47:02.681Z,9.50
2022-09-09T20:49:30.341Z,10.43
2022-09-09T20:51:57.306Z,9.10
2022-09-09T20:54:27.595Z,10.00
2022-09-09T20:56:58.182Z,9.40
2022-09-09T20:59:27.792Z,10.02
2022-09-09T21:01:56.888Z,8.32
2022-09-09T21:04:25.238Z,8.27
2022-09-09T21:06:52.699Z,9.18
2022-09-09T21:09:22.593Z,7.93
2022-09-09T21:11:49.718Z,6.97
2022-09-09T21:14:16.757Z,7.90
2022-09-09T21:16:44.001Z,5.57
2022-09-09T21:19:11.383Z,6.20
2022-09-09T21:21:38.482Z,7.85
2022-09-09T21:24:05.911Z,12.23
2022-09-09T21:26:33.125Z,5.45
2022-09-09T21:29:00.082Z,5.68
2022-09-09T21:31:28.449Z,5.68
2022-09-09T21:33:57.441Z,7.05
2022-09-09T21:36:27.196Z,5.72
2022-09-09T21:38:54.129Z,7.55
2022-09-09T21:41:21.596Z,6.13
2022-09-09T21:43:54.203Z,10.65
2022-09-09T21:46:23.387Z,8.80
2022-09-09T21:48:50.930Z,6.88
2022-09-09T21:51:19.108Z,6.78
2022-09-09T21:53:46.611Z,7.57
2022-09-09T21:56:17.479Z,7.50
2022-09-09T21:58:47.288Z,8.43
2022-09-09T22:01:18.072Z,6.88
2022-09-09T22:03:46.024Z,7.05
2022-09-09T22:06:15.962Z,8.00
2022-09-09T22:08:44.869Z,7.15
2022-09-09T22:11:18.943Z,6.05
2022-09-09T22:13:46.276Z,7.97
2022-09-09T22:16:18.028Z,7.22
2022-09-09T22:18:50.460Z,5.47
2022-09-09T22:21:19.376Z,6.10
2022-09-09T22:23:55.988Z,4.70
2022-09-09T22:26:25.193Z,8.00
2022-09-09T22:28:54.013Z,5.93
2022-09-09T22:31:23.044Z,4.30
2022-09-09T22:33:54.181Z,6.53
2022-09-09T22:36:21.763Z,4.80
2022-09-09T22:38:50.307Z,4.43
2022-09-09T22:41:18.825Z,3.28
2022-09-09T22:43:46.618Z,3.67
2022-09-09T22:46:14.098Z,3.28
2022-09-09T22:48:41.236Z,3.70
2022-09-09T22:51:12.289Z,3.80
2022-09-09T22:53:41.099Z,4.13
2022-09-09T22:56:14.264Z,2.83
2022-09-09T22:58:41.245Z,4.38
2022-09-09T23:01:14.843Z,2.95
2022-09-09T23:06:12.226Z,3.30
2022-09-09T23:08:39.309Z,2.35
2022-09-09T23:11:11.803Z,5.30
2022-09-09T23:13:41.516Z,1.52
2022-09-09T23:16:17.203Z,3.10
2022-09-09T23:18:45.395Z,3.42
2022-09-09T23:21:14.652Z,1.58
2022-09-09T23:23:43.206Z,1.65
2022-09-09T23:26:13.643Z,1.50
2022-09-09T23:28:43.832Z,1.98
2022-09-09T23:31:15.243Z,4.93
2022-09-09T23:33:43.728Z,7.63
2022-09-09T23:36:19.192Z,2.75
2022-09-09T23:38:47.385Z,2.80
2022-09-09T23:41:21.199Z,5.05
2022-09-09T23:43:50.473Z,3.58
2022-09-09T23:46:23.877Z,2.75
2022-09-09T23:51:23.774Z,7.40
2022-09-09T23:53:56.889Z,2.80
2022-09-09T23:56:31.315Z,3.10
2022-09-09T23:58:59.252Z,3.00
